Time;durP1;ratioP1;P1;durP2;ratioP2;P2;SDS_P1;SDS_P2;PMS_P1;PMS_P2;Temp;Humidity;BMP_temperature;BMP_pressure;BME280_temperature;BME280_humidity;BME280_pressure;Samples;Min_cycle;Max_cycle;Signal;HPM_P1;HPM_P2
2024/03/10 00:01:40;;;;;;;0.50;0.50;;;3.40;99.90;;;;;;4996342;28;20503;-86
2024/03/10 00:04:07;;;;;;;0.60;0.60;;;3.40;99.90;;;;;;5011512;28;20037;-86
2024/03/10 00:06:34;;;;;;;0.70;0.70;;;3.50;99.90;;;;;;5014507;28;20037;-87
2024/03/10 00:08:59;;;;;;;0.93;0.90;;;3.50;99.90;;;;;;5018204;28;20053;-86
2024/03/10 00:11:26;;;;;;;1.02;1.02;;;3.50;99.90;;;;;;5021798;28;20052;-88
2024/03/10 00:13:52;;;;;;;0.50;0.50;;;3.50;99.90;;;;;;5025480;28;20037;-87
2024/03/10 00:16:17;;;;;;;0.52;0.52;;;3.50;99.90;;;;;;5011963;28;20109;-85
2024/03/10 00:18:43;;;;;;;0.65;0.65;;;3.40;99.90;;;;;;5039444;28;20117;-83
2024/03/10 00:21:09;;;;;;;3.60;1.35;;;3.40;99.90;;;;;;5040685;28;20117;-84
2024/03/10 00:23:37;;;;;;;0.60;0.60;;;3.40;99.90;;;;;;5012027;28;20485;-83
2024/03/10 00:26:05;;;;;;;0.60;0.60;;;3.40;99.90;;;;;;5015806;28;20112;-81
2024/03/10 00:28:33;;;;;;;1.65;1.15;;;3.40;99.90;;;;;;5004922;28;20171;-83
2024/03/10 00:30:59;;;;;;;3.10;1.45;;;3.40;99.90;;;;;;5006926;28;20076;-83
2024/03/10 00:33:25;;;;;;;1.38;1.38;;;3.30;99.90;;;;;;5001622;28;20050;-83
2024/03/10 00:35:51;;;;;;;;;;;3.30;99.90;;;;;;5011198;28;20036;-84
2024/03/10 00:38:18;;;;;;;0.45;0.45;;;3.30;99.90;;;;;;5036649;28;19917;-84
2024/03/10 00:40:46;;;;;;;1.48;1.38;;;3.30;99.90;;;;;;5017679;28;20051;-85
2024/03/10 00:43:12;;;;;;;0.55;0.55;;;3.30;99.90;;;;;;5019602;28;20046;-84
2024/03/10 00:45:40;;;;;;;0.50;0.50;;;3.30;99.90;;;;;;5012239;28;20108;-84
2024/03/10 00:48:06;;;;;;;0.65;0.65;;;3.30;99.90;;;;;;4997208;28;20059;-82
2024/03/10 00:50:32;;;;;;;0.50;0.50;;;3.30;99.90;;;;;;4993515;28;20058;-83
2024/03/10 00:52:58;;;;;;;0.40;0.40;;;3.30;99.90;;;;;;5015410;28;20056;-83
2024/03/10 00:55:23;;;;;;;0.70;0.70;;;3.30;99.90;;;;;;5010041;28;20050;-83
2024/03/10 00:57:50;;;;;;;1.48;1.38;;;3.30;99.90;;;;;;5011995;28;20033;-83
2024/03/10 01:00:15;;;;;;;;;;;3.30;99.90;;;;;;5009475;28;20050;-84
2024/03/10 01:02:48;;;;;;;0.73;0.73;;;3.30;99.90;;;;;;5008559;28;20024;-83
2024/03/10 01:05:13;;;;;;;0.82;0.82;;;3.30;99.90;;;;;;4989763;28;20579;-82
2024/03/10 01:07:39;;;;;;;0.63;0.63;;;3.30;99.90;;;;;;5003859;28;20074;-81
2024/03/10 01:10:06;;;;;;;0.52;0.52;;;3.40;99.90;;;;;;5008589;28;20144;-82
2024/03/10 01:12:33;;;;;;;0.50;0.50;;;3.40;99.90;;;;;;4992668;28;20045;-81
2024/03/10 01:14:59;;;;;;;0.70;0.70;;;3.40;99.90;;;;;;5014521;28;20502;-83
2024/03/10 01:17:25;;;;;;;1.30;1.23;;;3.50;99.90;;;;;;5008632;28;20041;-83
2024/03/10 01:19:50;;;;;;;3.60;3.30;;;3.60;99.90;;;;;;5011352;28;20046;-83
2024/03/10 01:22:17;;;;;;;3.00;1.85;;;3.60;99.90;;;;;;4994811;28;20046;-82
2024/03/10 01:24:44;;;;;;;0.70;0.70;;;3.70;99.90;;;;;;5012360;28;20034;-82
2024/03/10 01:27:10;;;;;;;;;;;3.70;99.90;;;;;;5015651;28;20129;-81
2024/03/10 01:29:36;;;;;;;0.85;0.85;;;3.70;99.90;;;;;;5014955;28;20365;-82
2024/03/10 01:32:03;;;;;;;0.70;0.70;;;3.80;99.90;;;;;;5002501;28;20042;-82
2024/03/10 01:34:30;;;;;;;2.03;1.92;;;3.80;99.90;;;;;;5033285;28;20116;-81
2024/03/10 01:36:56;;;;;;;0.70;0.70;;;3.80;99.90;;;;;;5014273;28;20038;-83
2024/03/10 01:39:23;;;;;;;0.52;0.52;;;3.90;99.90;;;;;;5016524;28;20042;-82
2024/03/10 01:41:49;;;;;;;0.75;0.75;;;3.90;99.90;;;;;;5016836;28;20092;-84
2024/03/10 01:44:15;;;;;;;1.00;1.00;;;3.90;99.90;;;;;;5000800;28;20037;-84
2024/03/10 01:46:40;;;;;;;0.55;0.55;;;3.90;99.90;;;;;;5013972;28;20050;-82
2024/03/10 01:49:07;;;;;;;0.60;0.60;;;3.90;99.90;;;;;;5014409;28;20852;-83
2024/03/10 01:51:36;;;;;;;2.42;2.25;;;3.90;99.90;;;;;;4986537;28;20051;-84
2024/03/10 01:54:02;;;;;;;0.77;0.77;;;4.00;99.90;;;;;;5040931;28;20085;-83
2024/03/10 01:56:30;;;;;;;0.73;0.73;;;3.90;99.90;;;;;;5002589;28;20056;-82
2024/03/10 01:58:56;;;;;;;0.60;0.60;;;4.00;99.90;;;;;;5037610;28;20041;-82
2024/03/10 02:01:22;;;;;;;0.75;0.75;;;4.00;99.90;;;;;;5014123;28;20116;-84
2024/03/10 02:03:51;;;;;;;0.82;0.82;;;4.00;99.90;;;;;;5024732;28;20107;-83
2024/03/10 02:06:17;;;;;;;0.65;0.65;;;4.00;99.90;;;;;;5002051;28;20041;-86
2024/03/10 02:08:47;;;;;;;1.38;0.80;;;4.00;99.90;;;;;;5000826;28;20414;-81
2024/03/10 02:11:13;;;;;;;0.60;0.60;;;4.00;99.90;;;;;;5019743;28;20119;-83
2024/03/10 02:13:40;;;;;;;0.57;0.57;;;4.00;99.90;;;;;;5023316;28;20042;-85
2024/03/10 02:16:07;;;;;;;1.17;0.90;;;4.00;99.90;;;;;;5022400;28;20045;-86
2024/03/10 02:18:33;;;;;;;2.15;2.05;;;4.00;99.90;;;;;;4986713;28;20038;-85
2024/03/10 02:21:00;;;;;;;0.60;0.60;;;4.00;99.90;;;;;;5022284;28;20265;-84
2024/03/10 02:23:40;;;;;;;0.40;0.40;;;4.00;99.90;;;;;;4996973;28;20080;-82
2024/03/10 02:26:07;;;;;;;0.75;0.65;;;4.00;99.90;;;;;;5033789;28;20513;-82
2024/03/10 02:28:35;;;;;;;0.70;0.70;;;4.00;99.90;;;;;;4994681;28;20163;-84
2024/03/10 02:47:35;;;;;;;1.10;1.10;;;3.90;99.90;;;;;;5017691;28;20045;-84
2024/03/10 02:50:05;;;;;;;0.90;0.90;;;3.90;99.90;;;;;;4999537;28;20053;-82
2024/03/10 02:52:35;;;;;;;0.68;0.68;;;3.90;99.90;;;;;;5018294;28;20049;-83
2024/03/10 02:55:02;;;;;;;1.35;1.25;;;3.90;99.90;;;;;;5015841;28;20056;-83
2024/03/10 02:57:33;;;;;;;0.68;0.68;;;3.90;99.90;;;;;;5002472;28;20462;-84
2024/03/10 02:59:59;;;;;;;0.98;0.93;;;3.90;99.90;;;;;;5002441;28;20378;-84
2024/03/10 03:02:25;;;;;;;0.77;0.77;;;3.90;99.90;;;;;;5021669;28;20037;-80
2024/03/10 03:04:51;;;;;;;;;;;3.90;99.90;;;;;;4987805;28;20053;-83
2024/03/10 03:07:18;;;;;;;1.95;1.05;;;3.90;99.90;;;;;;5017901;28;19920;-83
2024/03/10 03:09:47;;;;;;;0.73;0.70;;;3.90;99.90;;;;;;4997588;28;20065;-81
2024/03/10 03:12:13;;;;;;;0.80;0.80;;;3.90;99.90;;;;;;5015239;28;20401;-81
2024/03/10 03:14:39;;;;;;;0.80;0.80;;;3.90;99.90;;;;;;5014462;28;20041;-81
2024/03/10 03:17:05;;;;;;;0.60;0.60;;;3.90;99.90;;;;;;5039906;28;20077;-81
2024/03/10 03:19:32;;;;;;;0.57;0.57;;;3.90;99.90;;;;;;4984615;28;20073;-81
2024/03/10 03:22:02;;;;;;;0.63;0.63;;;3.90;99.90;;;;;;5016850;28;20047;-81
2024/03/10 03:24:28;;;;;;;0.55;0.55;;;3.80;99.90;;;;;;5032926;28;20484;-84
2024/03/10 03:26:54;;;;;;;0.63;0.63;;;3.80;99.90;;;;;;5002441;28;20116;-83
2024/03/10 03:29:20;;;;;;;0.80;0.80;;;3.80;99.90;;;;;;5003147;28;20132;-83
2024/03/10 03:31:46;;;;;;;0.40;0.40;;;3.80;99.90;;;;;;4996255;28;20402;-83
2024/03/10 03:34:12;;;;;;;0.50;0.50;;;3.80;99.90;;;;;;5000284;28;20045;-83
2024/03/10 03:36:37;;;;;;;0.75;0.70;;;3.80;99.90;;;;;;5016146;28;20045;-85
2024/03/10 03:39:06;;;;;;;1.50;1.50;;;3.80;99.90;;;;;;5016892;28;20504;-82
2024/03/10 03:41:32;;;;;;;0.70;0.70;;;3.80;99.90;;;;;;4991066;28;20084;-83
2024/03/10 03:43:59;;;;;;;0.50;0.50;;;3.80;99.90;;;;;;4997680;28;20041;-83
2024/03/10 03:46:25;;;;;;;1.38;1.27;;;3.70;99.90;;;;;;4996217;28;20053;-83
2024/03/10 03:48:51;;;;;;;2.45;2.25;;;3.70;99.90;;;;;;4995014;28;20041;-84
2024/03/10 03:51:16;;;;;;;0.60;0.60;;;3.70;99.90;;;;;;5025388;28;20054;-85
2024/03/10 03:53:44;;;;;;;0.68;0.68;;;3.70;99.90;;;;;;5010893;28;20116;-84
2024/03/10 03:56:10;;;;;;;0.60;0.60;;;3.70;99.90;;;;;;5011908;28;20049;-83
2024/03/10 03:58:36;;;;;;;;;;;3.70;99.90;;;;;;5012742;28;20042;-84
2024/03/10 04:01:04;;;;;;;0.70;0.70;;;3.70;99.90;;;;;;5015753;28;19917;-84
2024/03/10 04:03:33;;;;;;;0.55;0.55;;;3.70;99.90;;;;;;4983575;28;20069;-83
2024/03/10 04:05:58;;;;;;;0.68;0.68;;;3.80;99.90;;;;;;5017732;28;20050;-84
2024/03/10 04:08:24;;;;;;;1.05;1.05;;;3.80;99.90;;;;;;4997718;28;20053;-83
2024/03/10 04:10:50;;;;;;;0.50;0.50;;;3.80;99.90;;;;;;5007569;28;20176;-83
2024/03/10 04:13:16;;;;;;;;;;;3.80;99.90;;;;;;5011471;28;20076;-84
2024/03/10 04:15:42;;;;;;;0.80;0.80;;;3.80;99.90;;;;;;5030720;28;20004;-83
2024/03/10 04:18:08;;;;;;;1.30;1.25;;;3.80;99.90;;;;;;5018631;28;20036;-84
2024/03/10 04:20:35;;;;;;;;;;;3.80;99.90;;;;;;5015956;28;20088;-84
2024/03/10 04:23:05;;;;;;;0.70;0.70;;;3.80;99.90;;;;;;5013025;28;20424;-83
2024/03/10 04:25:32;;;;;;;0.60;0.60;;;3.80;99.90;;;;;;4997938;28;20073;-84
2024/03/10 04:27:58;;;;;;;0.60;0.60;;;3.80;99.90;;;;;;5017877;28;20394;-84
2024/03/10 04:30:23;;;;;;;0.77;0.77;;;3.90;99.90;;;;;;5017564;28;20040;-84
2024/03/10 04:32:49;;;;;;;1.17;0.95;;;3.90;99.90;;;;;;5009227;28;20061;-82
2024/03/10 04:35:19;;;;;;;0.50;0.50;;;3.90;99.90;;;;;;5000284;28;20053;-83
2024/03/10 04:37:47;;;;;;;1.45;1.35;;;3.90;99.90;;;;;;5012453;28;20042;-84
2024/03/10 04:40:16;;;;;;;1.10;1.10;;;3.90;99.90;;;;;;5011224;28;20401;-83
2024/03/10 04:42:42;;;;;;;1.92;1.75;;;3.80;99.90;;;;;;5016882;28;20045;-84
2024/03/10 04:45:11;;;;;;;0.65;0.65;;;3.80;99.90;;;;;;5012530;28;20124;-84
2024/03/10 04:47:37;;;;;;;0.70;0.70;;;3.80;99.90;;;;;;5019035;28;20048;-85
2024/03/10 04:50:04;;;;;;;0.52;0.52;;;3.80;99.90;;;;;;4998509;28;20050;-85
2024/03/10 04:52:30;;;;;;;1.27;1.27;;;3.90;99.90;;;;;;4995575;28;20043;-84
2024/03/10 04:54:56;;;;;;;;;;;3.80;99.90;;;;;;4996365;28;20050;-84
2024/03/10 04:57:22;;;;;;;0.85;0.85;;;3.80;99.90;;;;;;4993242;28;19917;-85
2024/03/10 04:59:48;;;;;;;1.60;1.50;;;3.80;99.90;;;;;;4989703;28;20498;-84
2024/03/10 05:02:14;;;;;;;0.43;0.43;;;3.80;99.90;;;;;;4993551;28;20030;-84
2024/03/10 05:04:40;;;;;;;1.60;1.55;;;3.80;99.90;;;;;;4996727;28;20513;-85
2024/03/10 05:07:06;;;;;;;1.08;1.08;;;3.80;99.90;;;;;;4980492;28;20072;-84
2024/03/10 05:09:32;;;;;;;;;;;3.80;99.90;;;;;;4995722;28;20557;-84
2024/03/10 05:11:58;;;;;;;0.45;0.45;;;3.70;99.90;;;;;;4990903;28;19980;-85
2024/03/10 05:14:23;;;;;;;0.60;0.60;;;3.70;99.90;;;;;;5000539;28;20469;-84
2024/03/10 05:16:49;;;;;;;3.53;1.85;;;3.70;99.90;;;;;;4980794;28;20094;-82
2024/03/10 05:19:15;;;;;;;1.70;1.70;;;3.70;99.90;;;;;;4988096;28;20075;-81
2024/03/10 05:21:45;;;;;;;0.60;0.60;;;3.70;99.90;;;;;;4988385;28;20070;-81
2024/03/10 05:24:11;;;;;;;1.55;1.45;;;3.70;99.90;;;;;;4991476;28;20182;-82
2024/03/10 05:26:37;;;;;;;1.63;1.52;;;3.60;99.90;;;;;;4976961;28;20089;-81
2024/03/10 05:29:03;;;;;;;0.68;0.68;;;3.60;99.90;;;;;;4990588;28;20085;-82
2024/03/10 05:31:33;;;;;;;0.60;0.60;;;3.60;99.90;;;;;;4993044;28;20089;-81
2024/03/10 05:34:00;;;;;;;0.82;0.82;;;3.60;99.90;;;;;;4991609;28;20043;-83
2024/03/10 05:36:27;;;;;;;2.22;2.13;;;3.20;99.90;;;;;;4983690;28;20044;-83
2024/03/10 05:38:53;;;;;;;7.82;4.95;;;3.50;99.90;;;;;;4979512;28;20041;-84
2024/03/10 05:41:18;;;;;;;0.90;0.90;;;3.50;99.90;;;;;;4999363;28;20409;-84
2024/03/10 05:43:45;;;;;;;1.67;1.58;;;3.50;99.90;;;;;;5000801;28;20034;-85
2024/03/10 05:46:12;;;;;;;1.00;1.00;;;3.50;99.90;;;;;;5019343;28;20041;-85
2024/03/10 05:48:42;;;;;;;0.60;0.60;;;3.50;99.90;;;;;;4977010;28;20053;-85
2024/03/10 05:51:10;;;;;;;1.60;1.50;;;3.40;99.90;;;;;;5012923;28;20086;-87
2024/03/10 05:53:37;;;;;;;0.60;0.60;;;3.40;99.90;;;;;;5003782;28;20034;-84
2024/03/10 05:56:04;;;;;;;0.60;0.60;;;3.40;99.90;;;;;;5006948;28;20049;-85
2024/03/10 05:58:32;;;;;;;0.60;0.60;;;3.40;99.90;;;;;;4987160;28;20072;-82
2024/03/10 06:00:57;;;;;;;0.95;0.93;;;3.40;99.90;;;;;;4985438;28;20049;-86
2024/03/10 06:03:23;;;;;;;1.88;1.77;;;3.40;99.90;;;;;;4976310;28;20096;-87
2024/03/10 06:05:49;;;;;;;0.70;0.70;;;3.40;99.90;;;;;;5014540;28;20137;-82
2024/03/10 06:08:15;;;;;;;1.45;1.35;;;3.50;99.90;;;;;;5009606;28;20046;-86
2024/03/10 06:10:41;;;;;;;0.70;0.70;;;2.60;99.90;;;;;;5012336;28;20056;-83
2024/03/10 06:13:07;;;;;;;0.93;0.93;;;3.20;99.90;;;;;;5008097;28;20461;-84
2024/03/10 06:15:33;;;;;;;1.05;1.05;;;3.30;99.90;;;;;;5009374;28;20034;-86
2024/03/10 06:18:15;;;;;;;;;;;3.20;99.90;;;;;;5007381;28;20042;-88
2024/03/10 06:26:21;;;;;;;1.35;1.35;;;3.20;99.90;;;;;;4975228;28;20070;-84
2024/03/10 06:28:49;;;;;;;0.82;0.82;;;3.30;99.90;;;;;;4985606;28;20068;-81
2024/03/10 06:31:19;;;;;;;3.78;1.88;;;3.20;99.90;;;;;;5005265;28;20046;-84
2024/03/10 06:33:45;;;;;;;0.60;0.60;;;2.70;99.90;;;;;;5022210;28;20042;-84
2024/03/10 06:36:12;;;;;;;;;;;3.30;99.90;;;;;;5007651;28;20042;-84
2024/03/10 06:38:39;;;;;;;1.58;1.48;;;3.30;99.90;;;;;;5023592;28;19949;-82
2024/03/10 06:41:06;;;;;;;0.85;0.85;;;3.30;99.90;;;;;;5012073;28;20038;-84
2024/03/10 06:43:33;;;;;;;0.70;0.70;;;3.30;99.90;;;;;;4992935;28;20038;-82
2024/03/10 06:45:59;;;;;;;0.73;0.73;;;3.30;99.90;;;;;;5009959;28;20040;-85
2024/03/10 06:48:29;;;;;;;1.20;1.20;;;3.30;99.90;;;;;;4989679;28;20045;-85
2024/03/10 06:50:55;;;;;;;0.60;0.60;;;3.30;99.90;;;;;;5038858;28;20073;-84
2024/03/10 06:53:24;;;;;;;0.85;0.85;;;3.30;99.90;;;;;;5047568;28;20045;-81
2024/03/10 06:55:51;;;;;;;0.60;0.60;;;3.30;99.90;;;;;;5027281;28;20132;-83
2024/03/10 06:58:17;;;;;;;1.55;1.25;;;3.40;99.90;;;;;;5042381;28;20068;-82
2024/03/10 07:00:44;;;;;;;0.65;0.65;;;3.40;99.90;;;;;;5023900;28;20040;-85
2024/03/10 07:03:11;;;;;;;2.95;1.45;;;3.40;99.90;;;;;;5022303;28;20047;-79
2024/03/10 07:05:39;;;;;;;0.50;0.50;;;3.40;99.90;;;;;;5012457;28;20037;-78
2024/03/10 07:08:07;;;;;;;0.60;0.60;;;3.50;99.90;;;;;;5022036;28;20136;-79
2024/03/10 07:10:35;;;;;;;0.85;0.85;;;3.50;99.90;;;;;;5013533;28;20061;-79
2024/03/10 07:13:04;;;;;;;0.43;0.43;;;3.50;99.90;;;;;;5029040;28;20111;-77
2024/03/10 07:15:31;;;;;;;3.90;3.60;;;3.60;99.90;;;;;;5025924;28;20034;-78
2024/03/10 07:17:57;;;;;;;0.80;0.80;;;3.70;99.90;;;;;;4996241;28;20052;-78
2024/03/10 07:20:24;;;;;;;0.70;0.70;;;3.70;99.90;;;;;;5030579;28;20049;-78
2024/03/10 07:22:53;;;;;;;0.60;0.60;;;3.80;99.90;;;;;;4981733;28;20067;-78
2024/03/10 07:25:20;;;;;;;1.02;1.02;;;3.80;99.90;;;;;;5028672;28;20080;-78
2024/03/10 07:27:45;;;;;;;;;;;3.90;99.90;;;;;;5013962;28;20041;-81
2024/03/10 07:30:12;;;;;;;2.25;2.05;;;4.00;99.90;;;;;;5011704;28;19928;-78
2024/03/10 07:32:38;;;;;;;0.43;0.43;;;4.00;99.90;;;;;;5034096;28;20519;-77
2024/03/10 07:35:05;;;;;;;0.60;0.60;;;2.70;99.90;;;;;;5014642;28;20038;-78
2024/03/10 07:37:30;;;;;;;0.60;0.60;;;4.20;99.90;;;;;;5029965;28;20041;-78
2024/03/10 07:39:56;;;;;;;2.92;0.60;;;4.20;99.90;;;;;;5027619;28;20037;-79
2024/03/10 07:42:23;;;;;;;1.40;1.40;;;4.30;99.90;;;;;;5012976;28;20038;-77
2024/03/10 07:44:49;;;;;;;0.60;0.60;;;4.40;99.90;;;;;;5010461;28;20156;-78
2024/03/10 07:47:15;;;;;;;0.70;0.70;;;4.40;99.90;;;;;;5028159;28;20124;-80
2024/03/10 07:49:41;;;;;;;1.52;1.00;;;4.50;99.90;;;;;;4997421;28;20585;-74
2024/03/10 07:52:07;;;;;;;;;;;4.60;99.90;;;;;;5025701;28;20124;-76
2024/03/10 07:54:33;;;;;;;0.57;0.57;;;4.70;99.90;;;;;;5027217;28;20004;-79
2024/03/10 07:56:59;;;;;;;0.57;0.57;;;4.80;99.90;;;;;;5028373;28;20445;-76
2024/03/10 07:59:25;;;;;;;0.50;0.50;;;4.80;99.90;;;;;;5004675;28;20037;-77
2024/03/10 08:01:51;;;;;;;4.00;0.90;;;4.90;99.90;;;;;;5007102;28;20095;-77
2024/03/10 08:04:18;;;;;;;0.65;0.65;;;5.00;99.90;;;;;;5024895;28;20409;-79
2024/03/10 08:06:44;;;;;;;0.47;0.47;;;5.10;99.90;;;;;;5005731;28;20053;-78
2024/03/10 08:09:15;;;;;;;0.52;0.52;;;5.10;99.90;;;;;;5022501;28;20037;-79
2024/03/10 08:11:42;;;;;;;2.38;1.67;;;5.10;99.90;;;;;;4993367;28;20041;-80
2024/03/10 08:14:08;;;;;;;0.47;0.47;;;5.20;99.90;;;;;;5023617;28;20053;-77
2024/03/10 08:16:34;;;;;;;0.80;0.80;;;5.20;99.90;;;;;;5009047;28;20049;-77
2024/03/10 08:19:00;;;;;;;0.88;0.88;;;5.20;99.90;;;;;;5034109;28;20801;-78
2024/03/10 08:21:26;;;;;;;1.25;1.25;;;5.20;99.90;;;;;;5014043;28;20042;-78
2024/03/10 08:23:52;;;;;;;0.95;0.95;;;5.30;99.90;;;;;;5016347;28;20045;-79
2024/03/10 08:26:18;;;;;;;;;;;5.40;99.90;;;;;;5029157;28;20095;-80
2024/03/10 08:28:44;;;;;;;0.50;0.50;;;5.50;99.90;;;;;;5012097;28;19924;-77
2024/03/10 08:31:12;;;;;;;1.00;0.90;;;5.50;99.90;;;;;;4994516;28;20052;-78
2024/03/10 08:33:38;;;;;;;0.70;0.70;;;5.50;99.90;;;;;;5029262;28;20098;-78
2024/03/10 08:36:05;;;;;;;1.55;1.45;;;5.60;99.90;;;;;;4996290;28;20044;-78
2024/03/10 08:38:32;;;;;;;1.70;1.60;;;5.70;99.90;;;;;;5024981;28;20138;-78
2024/03/10 08:40:58;;;;;;;3.70;0.82;;;5.80;99.90;;;;;;5028928;28;20044;-80
2024/03/10 08:43:24;;;;;;;3.13;1.52;;;5.80;99.90;;;;;;4991812;28;20046;-79
2024/03/10 08:45:50;;;;;;;0.60;0.60;;;5.90;99.90;;;;;;5021515;28;20041;-79
2024/03/10 08:48:15;;;;;;;1.58;1.48;;;6.00;99.90;;;;;;5012900;28;20041;-79
2024/03/10 08:50:42;;;;;;;0.70;0.70;;;6.10;99.90;;;;;;5029448;28;20496;-80
2024/03/10 08:53:09;;;;;;;0.50;0.50;;;6.10;99.90;;;;;;5027500;28;20041;-80
2024/03/10 08:55:35;;;;;;;0.52;0.52;;;6.20;99.90;;;;;;5029610;28;20068;-78
2024/03/10 08:58:03;;;;;;;;;;;6.30;99.90;;;;;;5026234;28;20037;-79
2024/03/10 09:00:31;;;;;;;0.40;0.40;;;6.40;99.90;;;;;;5008239;28;19932;-79
2024/03/10 09:02:57;;;;;;;1.02;1.02;;;6.40;99.90;;;;;;4995812;28;20037;-79
2024/03/10 09:05:23;;;;;;;0.90;0.88;;;6.50;99.90;;;;;;4999763;28;20044;-80
2024/03/10 09:07:50;;;;;;;2.70;1.33;;;6.60;99.90;;;;;;5024858;28;20411;-78
2024/03/10 09:10:16;;;;;;;0.45;0.45;;;6.70;99.90;;;;;;5030549;28;20049;-79
2024/03/10 09:12:46;;;;;;;1.00;0.82;;;6.80;99.90;;;;;;5028098;28;20124;-76
2024/03/10 09:15:12;;;;;;;1.17;1.02;;;6.90;99.90;;;;;;5031055;28;20041;-79
2024/03/10 09:17:38;;;;;;;;;;;7.10;99.90;;;;;;5031684;28;20051;-78
2024/03/10 09:20:11;;;;;;;0.82;0.82;;;7.20;99.90;;;;;;5015315;28;20004;-76
2024/03/10 09:22:43;;;;;;;0.90;0.90;;;7.20;99.90;;;;;;5027609;28;20497;-78
2024/03/10 09:25:21;;;;;;;1.27;1.27;;;7.30;99.90;;;;;;4998426;28;20405;-78
2024/03/10 09:27:51;;;;;;;1.27;0.82;;;7.40;99.90;;;;;;5032564;28;20033;-79
2024/03/10 09:30:21;;;;;;;0.60;0.60;;;7.50;99.90;;;;;;5012066;28;20029;-78
2024/03/10 09:32:50;;;;;;;0.98;0.80;;;7.50;99.90;;;;;;5032472;28;20120;-79
2024/03/10 09:35:21;;;;;;;0.95;0.82;;;7.60;99.90;;;;;;5027369;28;20048;-79
2024/03/10 09:37:48;;;;;;;1.70;1.60;;;7.70;99.90;;;;;;5007191;28;20069;-77
2024/03/10 09:40:18;;;;;;;0.88;0.88;;;7.70;99.90;;;;;;5021567;28;20549;-77
2024/03/10 09:42:43;;;;;;;0.77;0.77;;;7.80;99.90;;;;;;5035638;28;20100;-79
2024/03/10 09:45:17;;;;;;;0.40;0.40;;;7.80;99.90;;;;;;5013743;28;20041;-78
2024/03/10 09:47:48;;;;;;;0.70;0.63;;;7.90;99.90;;;;;;4999366;28;20067;-78
2024/03/10 09:50:22;;;;;;;3.65;3.33;;;8.00;99.90;;;;;;5008279;28;20085;-77
2024/03/10 09:52:54;;;;;;;2.80;2.58;;;8.20;99.90;;;;;;5004857;28;20046;-77
2024/03/10 09:55:20;;;;;;;3.38;2.33;;;8.30;99.90;;;;;;4989356;28;20078;-78
2024/03/10 09:57:54;;;;;;;0.75;0.75;;;8.40;99.90;;;;;;5000355;28;20136;-79
2024/03/10 10:00:28;;;;;;;0.40;0.40;;;8.50;99.90;;;;;;4994578;28;20091;-78
2024/03/10 10:03:04;;;;;;;0.82;0.82;;;8.60;99.90;;;;;;4997282;28;20046;-78
2024/03/10 10:05:32;;;;;;;1.10;1.10;;;8.60;99.90;;;;;;4998684;28;20084;-77
2024/03/10 10:08:01;;;;;;;0.80;0.73;;;8.70;99.90;;;;;;4992531;28;20038;-79
2024/03/10 10:10:27;;;;;;;1.63;1.48;;;8.70;99.90;;;;;;4992938;28;20048;-78
2024/03/10 10:12:57;;;;;;;;;;;8.70;99.90;;;;;;4994356;28;20134;-76
2024/03/10 10:15:26;;;;;;;0.95;0.95;;;8.70;99.90;;;;;;4998514;28;20313;-78
2024/03/10 10:17:56;;;;;;;1.55;1.05;;;8.70;99.90;;;;;;4993444;28;20399;-78
2024/03/10 10:20:25;;;;;;;1.58;1.17;;;8.70;99.90;;;;;;4996289;28;20041;-79
2024/03/10 10:22:53;;;;;;;0.73;0.73;;;8.80;99.90;;;;;;4999110;28;20039;-79
2024/03/10 10:25:18;;;;;;;1.73;1.63;;;8.80;99.90;;;;;;4998968;28;20181;-79
2024/03/10 10:27:52;;;;;;;1.15;1.05;;;8.90;99.90;;;;;;4994156;28;20137;-76
2024/03/10 10:30:29;;;;;;;0.88;0.88;;;9.00;99.90;;;;;;4997707;28;20065;-78
2024/03/10 10:33:05;;;;;;;1.52;1.42;;;9.00;99.90;;;;;;4997774;28;20038;-78
2024/03/10 10:35:34;;;;;;;1.60;1.05;;;9.10;99.90;;;;;;4995405;28;20085;-77
2024/03/10 10:38:12;;;;;;;0.75;0.75;;;9.10;99.90;;;;;;4989936;28;20502;-77
2024/03/10 10:40:51;;;;;;;1.05;1.05;;;9.20;99.90;;;;;;4997087;28;20093;-77
2024/03/10 10:43:17;;;;;;;3.13;1.77;;;9.30;99.90;;;;;;4996667;28;20054;-78
2024/03/10 10:45:44;;;;;;;1.55;1.45;;;9.30;99.90;;;;;;4996127;28;20042;-80
2024/03/10 10:48:11;;;;;;;1.88;1.73;;;9.40;99.90;;;;;;4973613;28;20046;-78
2024/03/10 10:50:38;;;;;;;0.90;0.90;;;9.40;99.90;;;;;;4987156;28;20093;-78
2024/03/10 10:53:06;;;;;;;1.85;1.75;;;9.50;99.90;;;;;;5012869;28;20045;-76
2024/03/10 10:55:33;;;;;;;1.48;1.30;;;9.60;99.90;;;;;;4982698;28;20112;-78
2024/03/10 10:58:04;;;;;;;2.72;1.92;;;9.70;99.90;;;;;;5013134;28;20037;-78
2024/03/10 11:00:30;;;;;;;1.05;0.80;;;9.90;99.90;;;;;;5012759;28;20085;-77
2024/03/10 11:03:16;;;;;;;1.23;1.15;;;10.00;99.90;;;;;;5010758;28;20073;-77
2024/03/10 11:06:06;;;;;;;0.50;0.50;;;10.10;99.90;;;;;;5013641;28;20456;-76
2024/03/10 11:08:36;;;;;;;1.75;0.95;;;10.20;99.90;;;;;;5022155;28;20042;-76
2024/03/10 11:11:03;;;;;;;4.55;0.90;;;10.30;99.90;;;;;;5014482;28;20053;-80
2024/03/10 11:13:29;;;;;;;0.55;0.55;;;10.30;99.90;;;;;;5016251;28;20513;-77
2024/03/10 11:16:05;;;;;;;;;;;10.70;99.90;;;;;;5012456;28;20076;-79
2024/03/10 11:18:36;;;;;;;2.30;2.13;;;10.30;99.90;;;;;;5012892;28;19929;-78
2024/03/10 11:21:05;;;;;;;0.80;0.80;;;10.30;99.90;;;;;;5016381;28;20409;-76
2024/03/10 11:23:40;;;;;;;16.02;3.33;;;10.00;99.90;;;;;;5010038;28;20038;-79
2024/03/10 11:26:20;;;;;;;0.35;0.35;;;10.20;99.90;;;;;;5013966;28;20378;-77
2024/03/10 11:28:50;;;;;;;3.20;1.83;;;10.20;99.90;;;;;;5009066;28;20057;-77
2024/03/10 11:31:23;;;;;;;1.33;1.23;;;10.30;99.90;;;;;;5011690;28;20078;-78
2024/03/10 11:33:51;;;;;;;1.77;1.67;;;10.40;99.90;;;;;;5012252;28;20409;-76
2024/03/10 11:36:22;;;;;;;1.13;1.13;;;10.60;99.90;;;;;;5011390;28;20045;-77
2024/03/10 11:38:52;;;;;;;0.35;0.35;;;10.70;99.90;;;;;;5011882;28;20042;-76
2024/03/10 11:41:20;;;;;;;0.32;0.32;;;10.80;99.90;;;;;;5013662;28;20045;-76
2024/03/10 11:43:47;;;;;;;1.27;1.13;;;10.90;99.90;;;;;;5012098;28;20508;-79
2024/03/10 11:46:27;;;;;;;2.25;2.05;;;11.10;99.90;;;;;;5012075;28;20434;-78
2024/03/10 11:48:54;;;;;;;0.95;0.95;;;11.20;99.90;;;;;;5016564;28;20037;-79
2024/03/10 11:51:29;;;;;;;3.30;2.63;;;11.30;99.90;;;;;;5027507;28;20531;-77
2024/03/10 11:53:58;;;;;;;4.03;1.00;;;11.30;99.90;;;;;;5032635;28;20125;-78
2024/03/10 11:56:24;;;;;;;0.85;0.85;;;11.20;99.90;;;;;;5032778;28;20029;-78
2024/03/10 11:58:51;;;;;;;0.73;0.73;;;11.10;99.90;;;;;;4996943;28;20065;-77
2024/03/10 12:01:18;;;;;;;0.57;0.57;;;11.10;99.90;;;;;;5010631;28;20059;-79
2024/03/10 12:03:49;;;;;;;0.95;0.75;;;11.10;99.90;;;;;;5014674;28;20820;-78
2024/03/10 12:06:16;;;;;;;2.47;1.15;;;11.00;99.90;;;;;;5012364;28;20060;-76
2024/03/10 12:08:43;;;;;;;1.27;1.15;;;10.90;99.90;;;;;;5014677;28;20120;-77
2024/03/10 12:11:12;;;;;;;0.63;0.63;;;11.00;99.90;;;;;;5032883;28;20463;-79
2024/03/10 12:13:43;;;;;;;1.05;1.05;;;11.00;99.90;;;;;;5014313;28;20564;-79
2024/03/10 12:16:11;;;;;;;0.80;0.55;;;10.90;99.90;;;;;;5030991;28;20405;-78
2024/03/10 12:18:40;;;;;;;6.78;1.77;;;11.00;99.90;;;;;;5030114;28;20038;-78
2024/03/10 12:21:12;;;;;;;1.27;0.90;;;11.00;99.90;;;;;;5025598;28;20104;-79
2024/03/10 12:23:38;;;;;;;1.60;1.48;;;11.10;99.90;;;;;;5013494;28;20049;-78
2024/03/10 12:26:05;;;;;;;1.80;1.33;;;11.20;99.90;;;;;;5017529;28;20045;-77
2024/03/10 12:28:31;;;;;;;0.60;0.60;;;11.40;99.90;;;;;;5027527;28;20046;-79
2024/03/10 12:30:58;;;;;;;2.42;1.52;;;11.50;99.90;;;;;;4996869;28;20442;-78
2024/03/10 12:33:27;;;;;;;1.42;1.33;;;11.50;99.90;;;;;;5015566;28;20033;-78
2024/03/10 12:35:53;;;;;;;1.92;1.10;;;11.40;99.90;;;;;;5030912;28;20164;-79
2024/03/10 12:38:19;;;;;;;0.93;0.93;;;11.40;99.90;;;;;;5013409;28;20033;-78
2024/03/10 12:40:45;;;;;;;1.67;1.58;;;11.50;99.90;;;;;;5033020;28;20037;-79
2024/03/10 12:43:11;;;;;;;1.52;1.42;;;11.60;99.90;;;;;;5032223;28;20620;-77
2024/03/10 12:45:38;;;;;;;1.10;1.02;;;11.80;99.90;;;;;;5027651;28;20076;-79
2024/03/10 12:48:06;;;;;;;1.52;1.42;;;11.90;99.90;;;;;;5013744;28;20511;-76
2024/03/10 12:50:32;;;;;;;1.95;1.13;;;11.90;99.90;;;;;;4997883;28;20144;-77
2024/03/10 12:52:59;;;;;;;2.55;1.42;;;11.80;99.90;;;;;;5015701;28;20091;-80
2024/03/10 12:55:25;;;;;;;1.30;1.15;;;11.90;99.90;;;;;;5030852;28;20398;-79
2024/03/10 12:57:51;;;;;;;5.43;1.40;;;12.10;99.90;;;;;;5032025;28;20072;-78
2024/03/10 13:00:22;;;;;;;2.92;1.38;;;12.20;99.90;;;;;;5034934;28;20040;-77
2024/03/10 13:02:50;;;;;;;1.88;1.77;;;12.30;99.90;;;;;;5013930;28;20065;-77
2024/03/10 13:05:17;;;;;;;0.80;0.80;;;12.30;99.90;;;;;;5032663;28;20053;-79
2024/03/10 13:07:43;;;;;;;1.30;0.82;;;12.30;99.90;;;;;;5012709;28;20436;-78
2024/03/10 13:10:10;;;;;;;0.57;0.57;;;12.20;99.90;;;;;;5015556;28;20073;-78
2024/03/10 13:12:41;;;;;;;0.68;0.68;;;12.10;99.90;;;;;;5025208;28;20053;-79
2024/03/10 13:15:08;;;;;;;2.20;1.30;;;12.10;99.90;;;;;;5037519;28;20048;-78
2024/03/10 13:17:35;;;;;;;0.30;0.30;;;12.20;99.90;;;;;;5018907;28;20045;-77
2024/03/10 13:20:05;;;;;;;;;;;12.20;99.90;;;;;;5038995;28;20471;-80
2024/03/10 13:22:31;;;;;;;2.17;0.82;;;12.30;99.90;;;;;;5032867;28;19957;-75
2024/03/10 13:24:58;;;;;;;1.25;1.20;;;12.40;99.90;;;;;;5019346;28;20504;-80